sensor_id;sensor_type;location;lat;lon;timestamp;pressure;altitude;pressure_sealevel;temperature;humidity
63715;BME280;49858;48.956;9.076;2023-01-08T00:01:44;98203.34;;;8.40;100.00
63715;BME280;49858;48.956;9.076;2023-01-08T00:04:12;98202.47;;;8.68;100.00
63715;BME280;49858;48.956;9.076;2023-01-08T00:06:39;98190.00;;;9.25;100.00
63715;BME280;49858;48.956;9.076;2023-01-08T00:09:08;98174.41;;;9.10;100.00
63715;BME280;49858;48.956;9.076;2023-01-08T00:11:36;98180.03;;;9.17;100.00
63715;BME280;49858;48.956;9.076;2023-01-08T00:14:05;98181.97;;;8.62;100.00
63715;BME280;49858;48.956;9.076;2023-01-08T00:16:33;98173.59;;;8.90;100.00
63715;BME280;49858;48.956;9.076;2023-01-08T00:19:01;98165.81;;;9.50;100.00
63715;BME280;49858;48.956;9.076;2023-01-08T00:21:29;98180.91;;;9.79;100.00
63715;BME280;49858;48.956;9.076;2023-01-08T00:23:57;98179.59;;;8.95;100.00
63715;BME280;49858;48.956;9.076;2023-01-08T00:26:24;98178.91;;;9.37;100.00
63715;BME280;49858;48.956;9.076;2023-01-08T00:28:53;98178.00;;;8.94;100.00
63715;BME280;49858;48.956;9.076;2023-01-08T00:31:22;98171.28;;;9.11;100.00
63715;BME280;49858;48.956;9.076;2023-01-08T00:33:50;98163.63;;;9.01;100.00
63715;BME280;49858;48.956;9.076;2023-01-08T00:36:18;98155.41;;;9.01;100.00
63715;BME280;49858;48.956;9.076;2023-01-08T00:38:46;98145.91;;;9.14;100.00
63715;BME280;49858;48.956;9.076;2023-01-08T00:41:16;98133.06;;;8.83;100.00
63715;BME280;49858;48.956;9.076;2023-01-08T00:43:44;98131.81;;;8.45;100.00
63715;BME280;49858;48.956;9.076;2023-01-08T00:46:11;98135.53;;;8.53;100.00
63715;BME280;49858;48.956;9.076;2023-01-08T00:48:41;98119.78;;;8.66;100.00
63715;BME280;49858;48.956;9.076;2023-01-08T00:51:09;98121.84;;;8.37;100.00
63715;BME280;49858;48.956;9.076;2023-01-08T00:53:36;98126.09;;;8.19;100.00
63715;BME280;49858;48.956;9.076;2023-01-08T00:56:06;98128.63;;;7.80;100.00
63715;BME280;49858;48.956;9.076;2023-01-08T00:58:34;98129.53;;;7.40;100.00
63715;BME280;49858;48.956;9.076;2023-01-08T01:01:08;98128.59;;;7.49;100.00
63715;BME280;49858;48.956;9.076;2023-01-08T01:03:36;98132.16;;;7.37;100.00
63715;BME280;49858;48.956;9.076;2023-01-08T01:06:06;98120.28;;;7.17;100.00
63715;BME280;49858;48.956;9.076;2023-01-08T01:08:34;98113.66;;;7.18;100.00
63715;BME280;49858;48.956;9.076;2023-01-08T01:11:05;98113.16;;;7.28;100.00
63715;BME280;49858;48.956;9.076;2023-01-08T01:13:33;98115.97;;;7.60;100.00
63715;BME280;49858;48.956;9.076;2023-01-08T01:16:01;98114.50;;;7.62;100.00
63715;BME280;49858;48.956;9.076;2023-01-08T01:18:30;98117.25;;;7.78;100.00
63715;BME280;49858;48.956;9.076;2023-01-08T01:20:58;98118.22;;;8.02;100.00
63715;BME280;49858;48.956;9.076;2023-01-08T01:23:27;98113.44;;;7.99;100.00
63715;BME280;49858;48.956;9.076;2023-01-08T01:25:55;98114.50;;;8.26;100.00
63715;BME280;49858;48.956;9.076;2023-01-08T01:28:23;98115.66;;;8.40;100.00
63715;BME280;49858;48.956;9.076;2023-01-08T01:30:54;98107.44;;;8.40;100.00
63715;BME280;49858;48.956;9.076;2023-01-08T01:33:22;98096.59;;;7.97;100.00
63715;BME280;49858;48.956;9.076;2023-01-08T01:35:58;98105.13;;;7.95;100.00
63715;BME280;49858;48.956;9.076;2023-01-08T01:38:28;98102.59;;;7.86;100.00
63715;BME280;49858;48.956;9.076;2023-01-08T01:40:56;98106.19;;;8.22;100.00
63715;BME280;49858;48.956;9.076;2023-01-08T01:43:38;98117.34;;;8.29;100.00
63715;BME280;49858;48.956;9.076;2023-01-08T01:46:17;98126.72;;;8.44;100.00
63715;BME280;49858;48.956;9.076;2023-01-08T01:48:49;98119.69;;;8.62;100.00
63715;BME280;49858;48.956;9.076;2023-01-08T01:51:18;98122.34;;;8.59;100.00
63715;BME280;49858;48.956;9.076;2023-01-08T01:53:48;98126.72;;;8.99;100.00
63715;BME280;49858;48.956;9.076;2023-01-08T01:56:16;98130.06;;;8.37;100.00
63715;BME280;49858;48.956;9.076;2023-01-08T01:58:44;98129.91;;;8.14;100.00
63715;BME280;49858;48.956;9.076;2023-01-08T02:01:11;98121.72;;;7.55;100.00
63715;BME280;49858;48.956;9.076;2023-01-08T02:03:40;98110.63;;;7.35;100.00
63715;BME280;49858;48.956;9.076;2023-01-08T02:06:15;98098.53;;;7.36;100.00
63715;BME280;49858;48.956;9.076;2023-01-08T02:08:54;98101.94;;;7.61;100.00
63715;BME280;49858;48.956;9.076;2023-01-08T02:11:31;98102.28;;;7.76;100.00
63715;BME280;49858;48.956;9.076;2023-01-08T02:14:07;98100.81;;;7.78;100.00
63715;BME280;49858;48.956;9.076;2023-01-08T02:16:40;98102.31;;;7.91;100.00
63715;BME280;49858;48.956;9.076;2023-01-08T02:19:23;98101.34;;;7.68;100.00
63715;BME280;49858;48.956;9.076;2023-01-08T02:22:02;98092.75;;;7.69;100.00
63715;BME280;49858;48.956;9.076;2023-01-08T02:24:44;98094.00;;;8.19;100.00
63715;BME280;49858;48.956;9.076;2023-01-08T02:27:15;98077.53;;;8.35;100.00
63715;BME280;49858;48.956;9.076;2023-01-08T02:29:43;98073.75;;;8.24;100.00
63715;BME280;49858;48.956;9.076;2023-01-08T02:32:11;98068.00;;;8.29;100.00
63715;BME280;49858;48.956;9.076;2023-01-08T02:34:39;98067.72;;;8.34;100.00
63715;BME280;49858;48.956;9.076;2023-01-08T02:37:07;98058.09;;;8.76;100.00
63715;BME280;49858;48.956;9.076;2023-01-08T02:39:54;98056.28;;;8.83;100.00
63715;BME280;49858;48.956;9.076;2023-01-08T02:42:34;98055.88;;;9.43;100.00
63715;BME280;49858;48.956;9.076;2023-01-08T02:45:07;98057.13;;;9.26;100.00
63715;BME280;49858;48.956;9.076;2023-01-08T02:47:40;98051.50;;;9.19;100.00
63715;BME280;49858;48.956;9.076;2023-01-08T02:50:18;98042.56;;;9.03;100.00
63715;BME280;49858;48.956;9.076;2023-01-08T02:52:54;98043.31;;;8.80;100.00
63715;BME280;49858;48.956;9.076;2023-01-08T02:55:24;98037.66;;;8.92;100.00
63715;BME280;49858;48.956;9.076;2023-01-08T02:57:55;98031.84;;;8.94;100.00
63715;BME280;49858;48.956;9.076;2023-01-08T03:00:23;98036.34;;;8.48;100.00
63715;BME280;49858;48.956;9.076;2023-01-08T03:03:00;98032.00;;;8.47;100.00
63715;BME280;49858;48.956;9.076;2023-01-08T03:05:32;98027.69;;;8.65;100.00
63715;BME280;49858;48.956;9.076;2023-01-08T03:08:01;98026.78;;;8.41;100.00
63715;BME280;49858;48.956;9.076;2023-01-08T03:10:29;98016.97;;;8.05;100.00
63715;BME280;49858;48.956;9.076;2023-01-08T03:13:01;98009.00;;;8.16;100.00
63715;BME280;49858;48.956;9.076;2023-01-08T03:15:34;98016.97;;;8.05;100.00
63715;BME280;49858;48.956;9.076;2023-01-08T03:18:06;98012.75;;;8.27;100.00
63715;BME280;49858;48.956;9.076;2023-01-08T03:20:36;98002.59;;;7.92;100.00
63715;BME280;49858;48.956;9.076;2023-01-08T03:23:06;97995.53;;;7.91;100.00
63715;BME280;49858;48.956;9.076;2023-01-08T03:25:37;97999.75;;;7.89;100.00
63715;BME280;49858;48.956;9.076;2023-01-08T03:28:11;98000.16;;;8.07;100.00
63715;BME280;49858;48.956;9.076;2023-01-08T03:30:41;97994.78;;;8.10;100.00
63715;BME280;49858;48.956;9.076;2023-01-08T03:33:11;97999.47;;;8.10;100.00
63715;BME280;49858;48.956;9.076;2023-01-08T03:35:41;97994.03;;;8.13;100.00
63715;BME280;49858;48.956;9.076;2023-01-08T03:38:14;97985.22;;;8.04;100.00
63715;BME280;49858;48.956;9.076;2023-01-08T03:40:46;97993.06;;;7.86;100.00
63715;BME280;49858;48.956;9.076;2023-01-08T03:43:16;97978.91;;;7.84;100.00
63715;BME280;49858;48.956;9.076;2023-01-08T03:45:48;97977.59;;;7.78;100.00
63715;BME280;49858;48.956;9.076;2023-01-08T03:48:18;97976.03;;;7.46;100.00
63715;BME280;49858;48.956;9.076;2023-01-08T03:50:47;97976.13;;;7.65;100.00
63715;BME280;49858;48.956;9.076;2023-01-08T03:53:15;97978.03;;;7.80;100.00
63715;BME280;49858;48.956;9.076;2023-01-08T03:55:42;97971.03;;;7.99;100.00
63715;BME280;49858;48.956;9.076;2023-01-08T03:58:10;97975.34;;;8.00;100.00
63715;BME280;49858;48.956;9.076;2023-01-08T04:00:39;97979.78;;;7.88;100.00
63715;BME280;49858;48.956;9.076;2023-01-08T04:03:07;97975.31;;;8.70;100.00
63715;BME280;49858;48.956;9.076;2023-01-08T04:05:35;97968.22;;;8.30;100.00
63715;BME280;49858;48.956;9.076;2023-01-08T04:08:03;97960.09;;;8.18;100.00
63715;BME280;49858;48.956;9.076;2023-01-08T04:10:31;97959.63;;;8.32;100.00
63715;BME280;49858;48.956;9.076;2023-01-08T04:12:59;97957.56;;;8.44;100.00
63715;BME280;49858;48.956;9.076;2023-01-08T04:15:26;97956.13;;;8.89;100.00
63715;BME280;49858;48.956;9.076;2023-01-08T04:17:56;97954.31;;;9.20;100.00
63715;BME280;49858;48.956;9.076;2023-01-08T04:20:23;97958.88;;;8.89;100.00
63715;BME280;49858;48.956;9.076;2023-01-08T04:22:51;97965.34;;;9.01;100.00
63715;BME280;49858;48.956;9.076;2023-01-08T04:25:19;97955.69;;;8.87;100.00
63715;BME280;49858;48.956;9.076;2023-01-08T04:27:47;97953.81;;;9.14;100.00
63715;BME280;49858;48.956;9.076;2023-01-08T04:30:15;97951.06;;;9.60;100.00
63715;BME280;49858;48.956;9.076;2023-01-08T04:32:43;97955.16;;;9.70;100.00
63715;BME280;49858;48.956;9.076;2023-01-08T04:35:12;97959.34;;;9.64;100.00
63715;BME280;49858;48.956;9.076;2023-01-08T04:37:39;97960.09;;;9.61;100.00
63715;BME280;49858;48.956;9.076;2023-01-08T04:40:08;97969.75;;;9.51;100.00
63715;BME280;49858;48.956;9.076;2023-01-08T04:42:36;97966.38;;;9.61;100.00
63715;BME280;49858;48.956;9.076;2023-01-08T04:45:05;97979.66;;;9.59;100.00
63715;BME280;49858;48.956;9.076;2023-01-08T04:47:33;97980.59;;;9.21;100.00
63715;BME280;49858;48.956;9.076;2023-01-08T04:50:01;97979.81;;;9.43;100.00
63715;BME280;49858;48.956;9.076;2023-01-08T04:52:30;97975.44;;;8.96;100.00
63715;BME280;49858;48.956;9.076;2023-01-08T04:54:58;97980.72;;;9.51;100.00
63715;BME280;49858;48.956;9.076;2023-01-08T04:57:25;97972.28;;;9.40;100.00
63715;BME280;49858;48.956;9.076;2023-01-08T04:59:53;97971.84;;;9.84;100.00
63715;BME280;49858;48.956;9.076;2023-01-08T05:02:21;97974.63;;;9.15;100.00
63715;BME280;49858;48.956;9.076;2023-01-08T05:04:49;97968.69;;;8.16;100.00
63715;BME280;49858;48.956;9.076;2023-01-08T05:07:16;97973.69;;;8.30;100.00
63715;BME280;49858;48.956;9.076;2023-01-08T05:09:45;97966.91;;;8.24;100.00
63715;BME280;49858;48.956;9.076;2023-01-08T05:12:13;97971.00;;;8.14;100.00
63715;BME280;49858;48.956;9.076;2023-01-08T05:14:41;97973.28;;;8.12;100.00
63715;BME280;49858;48.956;9.076;2023-01-08T05:17:09;97986.72;;;8.53;100.00
63715;BME280;49858;48.956;9.076;2023-01-08T05:19:36;97982.31;;;8.48;100.00
63715;BME280;49858;48.956;9.076;2023-01-08T05:22:04;97982.44;;;8.55;100.00
63715;BME280;49858;48.956;9.076;2023-01-08T05:24:32;97986.63;;;8.49;100.00
63715;BME280;49858;48.956;9.076;2023-01-08T05:27:01;97993.50;;;8.78;100.00
63715;BME280;49858;48.956;9.076;2023-01-08T05:29:29;97984.97;;;8.83;100.00
63715;BME280;49858;48.956;9.076;2023-01-08T05:31:56;97987.34;;;9.04;100.00
63715;BME280;49858;48.956;9.076;2023-01-08T05:34:24;97980.84;;;8.93;100.00
63715;BME280;49858;48.956;9.076;2023-01-08T05:36:52;97977.75;;;8.94;100.00
63715;BME280;49858;48.956;9.076;2023-01-08T05:39:20;97977.19;;;9.28;100.00
63715;BME280;49858;48.956;9.076;2023-01-08T05:41:47;97980.22;;;8.80;100.00
63715;BME280;49858;48.956;9.076;2023-01-08T05:44:16;97974.22;;;8.94;100.00
63715;BME280;49858;48.956;9.076;2023-01-08T05:46:44;97977.34;;;8.73;100.00
63715;BME280;49858;48.956;9.076;2023-01-08T05:49:12;97980.78;;;8.70;100.00
63715;BME280;49858;48.956;9.076;2023-01-08T05:51:42;97976.84;;;8.48;100.00
63715;BME280;49858;48.956;9.076;2023-01-08T05:54:10;97991.13;;;8.38;100.00
63715;BME280;49858;48.956;9.076;2023-01-08T05:56:37;97973.59;;;8.27;100.00
63715;BME280;49858;48.956;9.076;2023-01-08T05:59:05;97984.59;;;8.46;100.00
63715;BME280;49858;48.956;9.076;2023-01-08T06:01:34;97969.19;;;8.38;100.00
63715;BME280;49858;48.956;9.076;2023-01-08T06:04:02;97985.28;;;8.59;100.00
63715;BME280;49858;48.956;9.076;2023-01-08T06:06:30;97987.09;;;8.70;100.00
63715;BME280;49858;48.956;9.076;2023-01-08T06:08:58;97981.91;;;8.85;100.00
63715;BME280;49858;48.956;9.076;2023-01-08T06:11:26;97979.50;;;8.83;100.00
63715;BME280;49858;48.956;9.076;2023-01-08T06:13:54;97979.13;;;8.65;100.00
63715;BME280;49858;48.956;9.076;2023-01-08T06:16:25;97961.25;;;9.14;100.00
63715;BME280;49858;48.956;9.076;2023-01-08T06:18:57;97961.81;;;9.00;100.00
63715;BME280;49858;48.956;9.076;2023-01-08T06:21:25;97960.03;;;9.34;100.00
63715;BME280;49858;48.956;9.076;2023-01-08T06:23:52;97956.81;;;9.29;100.00
63715;BME280;49858;48.956;9.076;2023-01-08T06:26:20;97962.47;;;9.16;100.00
63715;BME280;49858;48.956;9.076;2023-01-08T06:28:48;97968.63;;;9.10;100.00
63715;BME280;49858;48.956;9.076;2023-01-08T06:31:15;97952.84;;;9.26;100.00
63715;BME280;49858;48.956;9.076;2023-01-08T06:33:43;97954.91;;;9.10;100.00
63715;BME280;49858;48.956;9.076;2023-01-08T06:36:12;97957.13;;;9.24;100.00
63715;BME280;49858;48.956;9.076;2023-01-08T06:38:40;97953.03;;;9.37;100.00
63715;BME280;49858;48.956;9.076;2023-01-08T06:41:09;97962.44;;;9.13;100.00
63715;BME280;49858;48.956;9.076;2023-01-08T06:43:37;97946.06;;;9.20;100.00
63715;BME280;49858;48.956;9.076;2023-01-08T06:46:06;97944.81;;;9.37;100.00
63715;BME280;49858;48.956;9.076;2023-01-08T06:48:35;97946.50;;;9.45;100.00
63715;BME280;49858;48.956;9.076;2023-01-08T06:51:04;97954.25;;;9.16;100.00
63715;BME280;49858;48.956;9.076;2023-01-08T06:53:33;97952.34;;;9.43;100.00
63715;BME280;49858;48.956;9.076;2023-01-08T06:56:02;97952.78;;;9.45;100.00
63715;BME280;49858;48.956;9.076;2023-01-08T06:58:29;97955.25;;;9.77;100.00
63715;BME280;49858;48.956;9.076;2023-01-08T07:00:57;97961.06;;;9.49;100.00
63715;BME280;49858;48.956;9.076;2023-01-08T07:03:25;97947.06;;;10.07;100.00
63715;BME280;49858;48.956;9.076;2023-01-08T07:05:53;97960.88;;;9.84;100.00
63715;BME280;49858;48.956;9.076;2023-01-08T07:08:22;97944.31;;;9.81;100.00
63715;BME280;49858;48.956;9.076;2023-01-08T07:10:51;97948.69;;;9.59;100.00
63715;BME280;49858;48.956;9.076;2023-01-08T07:13:19;97943.06;;;9.75;100.00
63715;BME280;49858;48.956;9.076;2023-01-08T07:15:48;97939.59;;;9.55;100.00
63715;BME280;49858;48.956;9.076;2023-01-08T07:18:15;97936.84;;;9.55;100.00
63715;BME280;49858;48.956;9.076;2023-01-08T07:20:43;97942.06;;;9.37;100.00
63715;BME280;49858;48.956;9.076;2023-01-08T07:23:11;97945.28;;;9.42;100.00
63715;BME280;49858;48.956;9.076;2023-01-08T07:25:39;97949.53;;;9.63;100.00
63715;BME280;49858;48.956;9.076;2023-01-08T07:28:10;97947.31;;;9.72;100.00
63715;BME280;49858;48.956;9.076;2023-01-08T07:30:38;97947.44;;;9.79;100.00
63715;BME280;49858;48.956;9.076;2023-01-08T07:33:06;97960.06;;;9.84;100.00
63715;BME280;49858;48.956;9.076;2023-01-08T07:35:34;97953.38;;;10.11;100.00
63715;BME280;49858;48.956;9.076;2023-01-08T07:38:04;97943.41;;;9.73;100.00
63715;BME280;49858;48.956;9.076;2023-01-08T07:40:32;97968.88;;;9.70;100.00
63715;BME280;49858;48.956;9.076;2023-01-08T07:43:02;97960.16;;;9.91;100.00
63715;BME280;49858;48.956;9.076;2023-01-08T07:45:31;97967.03;;;9.78;100.00
63715;BME280;49858;48.956;9.076;2023-01-08T07:47:59;97966.00;;;9.63;100.00
63715;BME280;49858;48.956;9.076;2023-01-08T07:50:27;97964.19;;;9.47;100.00
63715;BME280;49858;48.956;9.076;2023-01-08T07:52:58;97963.88;;;9.30;100.00
63715;BME280;49858;48.956;9.076;2023-01-08T07:55:27;97965.78;;;9.26;100.00
63715;BME280;49858;48.956;9.076;2023-01-08T07:57:55;97957.59;;;9.52;100.00
63715;BME280;49858;48.956;9.076;2023-01-08T08:00:24;97959.13;;;9.27;100.00
63715;BME280;49858;48.956;9.076;2023-01-08T08:02:53;97963.72;;;9.19;100.00
63715;BME280;49858;48.956;9.076;2023-01-08T08:05:24;97965.34;;;9.24;100.00
63715;BME280;49858;48.956;9.076;2023-01-08T08:07:52;97960.34;;;9.29;100.00
63715;BME280;49858;48.956;9.076;2023-01-08T08:10:19;97957.75;;;9.36;100.00
63715;BME280;49858;48.956;9.076;2023-01-08T08:12:47;97957.84;;;9.43;100.00
63715;BME280;49858;48.956;9.076;2023-01-08T08:15:15;97968.03;;;9.20;100.00
63715;BME280;49858;48.956;9.076;2023-01-08T08:17:44;97962.75;;;8.88;100.00
63715;BME280;49858;48.956;9.076;2023-01-08T08:20:13;97956.81;;;9.06;100.00
63715;BME280;49858;48.956;9.076;2023-01-08T08:22:41;97952.56;;;9.08;100.00
63715;BME280;49858;48.956;9.076;2023-01-08T08:25:09;97957.69;;;8.90;100.00
63715;BME280;49858;48.956;9.076;2023-01-08T08:27:37;97960.81;;;9.12;100.00
63715;BME280;49858;48.956;9.076;2023-01-08T08:30:07;97950.94;;;9.07;100.00
63715;BME280;49858;48.956;9.076;2023-01-08T08:32:35;97947.72;;;9.02;100.00
63715;BME280;49858;48.956;9.076;2023-01-08T08:35:03;97950.47;;;9.25;100.00
63715;BME280;49858;48.956;9.076;2023-01-08T08:37:33;97944.34;;;9.12;100.00
63715;BME280;49858;48.956;9.076;2023-01-08T08:40:01;97946.28;;;8.88;100.00
63715;BME280;49858;48.956;9.076;2023-01-08T08:42:28;97947.72;;;9.02;100.00
63715;BME280;49858;48.956;9.076;2023-01-08T08:44:56;97940.16;;;8.95;100.00
63715;BME280;49858;48.956;9.076;2023-01-08T08:47:24;97946.16;;;8.81;100.00
63715;BME280;49858;48.956;9.076;2023-01-08T08:49:52;97942.78;;;9.11;100.00
63715;BME280;49858;48.956;9.076;2023-01-08T08:52:19;97940.91;;;9.15;100.00
63715;BME280;49858;48.956;9.076;2023-01-08T08:54:48;97945.78;;;9.25;100.00
63715;BME280;49858;48.956;9.076;2023-01-08T08:57:16;97941.03;;;8.80;100.00
63715;BME280;49858;48.956;9.076;2023-01-08T08:59:44;97934.69;;;9.18;100.00
63715;BME280;49858;48.956;9.076;2023-01-08T09:02:13;97929.00;;;9.07;100.00
63715;BME280;49858;48.956;9.076;2023-01-08T09:04:41;97937.41;;;8.95;100.00
63715;BME280;49858;48.956;9.076;2023-01-08T09:07:09;97934.38;;;9.23;100.00
63715;BME280;49858;48.956;9.076;2023-01-08T09:09:37;97937.34;;;8.91;100.00
63715;BME280;49858;48.956;9.076;2023-01-08T09:12:06;97938.56;;;8.94;100.00
63715;BME280;49858;48.956;9.076;2023-01-08T09:14:34;97934.44;;;9.04;100.00
63715;BME280;49858;48.956;9.076;2023-01-08T09:17:02;97932.53;;;9.31;100.00
63715;BME280;49858;48.956;9.076;2023-01-08T09:19:30;97926.47;;;8.99;100.00
63715;BME280;49858;48.956;9.076;2023-01-08T09:21:57;97940.50;;;8.93;100.00
63715;BME280;49858;48.956;9.076;2023-01-08T09:24:25;97942.47;;;9.16;100.00
63715;BME280;49858;48.956;9.076;2023-01-08T09:26:56;97927.25;;;9.41;100.00
63715;BME280;49858;48.956;9.076;2023-01-08T09:29:27;97943.50;;;9.08;100.00
63715;BME280;49858;48.956;9.076;2023-01-08T09:31:55;97936.88;;;9.09;100.00
63715;BME280;49858;48.956;9.076;2023-01-08T09:34:25;97933.56;;;9.00;100.00
63715;BME280;49858;48.956;9.076;2023-01-08T09:36:53;97930.47;;;9.47;100.00
63715;BME280;49858;48.956;9.076;2023-01-08T09:39:20;97926.41;;;9.41;100.00
63715;BME280;49858;48.956;9.076;2023-01-08T09:41:49;97943.50;;;9.08;100.00
63715;BME280;49858;48.956;9.076;2023-01-08T09:44:19;97931.94;;;9.18;100.00
63715;BME280;49858;48.956;9.076;2023-01-08T09:46:52;97934.53;;;9.57;100.00
63715;BME280;49858;48.956;9.076;2023-01-08T09:49:24;97930.78;;;9.68;100.00
63715;BME280;49858;48.956;9.076;2023-01-08T09:51:55;97923.41;;;9.46;100.00
63715;BME280;49858;48.956;9.076;2023-01-08T09:54:25;97933.03;;;9.36;100.00
63715;BME280;49858;48.956;9.076;2023-01-08T09:56:56;97933.53;;;9.19;100.00
63715;BME280;49858;48.956;9.076;2023-01-08T09:59:25;97925.84;;;9.05;100.00
63715;BME280;49858;48.956;9.076;2023-01-08T10:01:55;97924.59;;;9.03;100.00
63715;BME280;49858;48.956;9.076;2023-01-08T10:04:25;97942.78;;;9.11;100.00
63715;BME280;49858;48.956;9.076;2023-01-08T10:06:55;97941.50;;;9.05;100.00
63715;BME280;49858;48.956;9.076;2023-01-08T10:09:25;97926.72;;;9.36;100.00
63715;BME280;49858;48.956;9.076;2023-01-08T10:11:57;97938.63;;;9.20;100.00
63715;BME280;49858;48.956;9.076;2023-01-08T10:14:28;97941.63;;;9.12;100.00
63715;BME280;49858;48.956;9.076;2023-01-08T10:17:00;97937.97;;;9.04;100.00
63715;BME280;49858;48.956;9.076;2023-01-08T10:19:29;97938.81;;;9.31;100.00
63715;BME280;49858;48.956;9.076;2023-01-08T10:21:57;97939.72;;;9.16;100.00
63715;BME280;49858;48.956;9.076;2023-01-08T10:24:33;97931.03;;;9.33;100.00
63715;BME280;49858;48.956;9.076;2023-01-08T10:27:06;97923.09;;;9.05;100.00
63715;BME280;49858;48.956;9.076;2023-01-08T10:29:34;97917.00;;;9.38;100.00
63715;BME280;49858;48.956;9.076;2023-01-08T10:32:07;97931.03;;;9.33;100.00
63715;BME280;49858;48.956;9.076;2023-01-08T10:34:44;97920.13;;;9.14;100.00
63715;BME280;49858;48.956;9.076;2023-01-08T10:37:14;97915.16;;;9.23;100.00
63715;BME280;49858;48.956;9.076;2023-01-08T10:39:45;97910.78;;;9.41;100.00
63715;BME280;49858;48.956;9.076;2023-01-08T10:42:15;97913.84;;;9.63;100.00
63715;BME280;49858;48.956;9.076;2023-01-08T10:44:55;97896.75;;;9.50;100.00
63715;BME280;49858;48.956;9.076;2023-01-08T10:47:26;97905.94;;;9.35;100.00
63715;BME280;49858;48.956;9.076;2023-01-08T10:49:55;97902.25;;;9.50;100.00
63715;BME280;49858;48.956;9.076;2023-01-08T10:52:30;97910.81;;;9.22;100.00
63715;BME280;49858;48.956;9.076;2023-01-08T10:55:11;97900.34;;;9.28;100.00
63715;BME280;49858;48.956;9.076;2023-01-08T10:57:40;97903.03;;;9.24;100.00
63715;BME280;49858;48.956;9.076;2023-01-08T11:00:23;97902.09;;;9.39;100.00
63715;BME280;49858;48.956;9.076;2023-01-08T11:02:53;97900.75;;;9.30;100.00
63715;BME280;49858;48.956;9.076;2023-01-08T11:05:31;97891.75;;;9.29;100.00
63715;BME280;49858;48.956;9.076;2023-01-08T11:08:00;97882.94;;;9.43;100.00
63715;BME280;49858;48.956;9.076;2023-01-08T11:10:32;97885.47;;;9.29;100.00
63715;BME280;49858;48.956;9.076;2023-01-08T11:13:02;97887.28;;;9.44;100.00
63715;BME280;49858;48.956;9.076;2023-01-08T11:15:33;97874.81;;;10.07;100.00
63715;BME280;49858;48.956;9.076;2023-01-08T11:18:15;97888.91;;;9.48;100.00
63715;BME280;49858;48.956;9.076;2023-01-08T11:20:45;97879.50;;;9.76;100.00
63715;BME280;49858;48.956;9.076;2023-01-08T11:23:18;97866.13;;;10.65;100.00
63715;BME280;49858;48.956;9.076;2023-01-08T11:25:51;97861.88;;;10.37;100.00
63715;BME280;49858;48.956;9.076;2023-01-08T11:28:27;97850.78;;;10.64;100.00
63715;BME280;49858;48.956;9.076;2023-01-08T11:31:03;97852.56;;;10.45;100.00
63715;BME280;49858;48.956;9.076;2023-01-08T11:33:38;97841.84;;;10.37;100.00
63715;BME280;49858;48.956;9.076;2023-01-08T11:36:12;97841.97;;;10.88;100.00
63715;BME280;49858;48.956;9.076;2023-01-08T11:38:42;97846.72;;;10.51;100.00
63715;BME280;49858;48.956;9.076;2023-01-08T11:41:21;97838.72;;;10.75;100.00
63715;BME280;49858;48.956;9.076;2023-01-08T11:44:20;97822.13;;;10.28;100.00
63715;BME280;49858;48.956;9.076;2023-01-08T11:46:55;97831.31;;;10.83;100.00
63715;BME280;49858;48.956;9.076;2023-01-08T11:49:40;97807.78;;;10.89;100.00
63715;BME280;49858;48.956;9.076;2023-01-08T11:52:18;97810.25;;;10.57;100.00
63715;BME280;49858;48.956;9.076;2023-01-08T11:55:01;97807.88;;;10.22;100.00
63715;BME280;49858;48.956;9.076;2023-01-08T11:57:41;97810.19;;;10.54;100.00
63715;BME280;49858;48.956;9.076;2023-01-08T12:00:23;97797.44;;;10.35;100.00
63715;BME280;49858;48.956;9.076;2023-01-08T12:02:59;97798.84;;;10.21;100.00
63715;BME280;49858;48.956;9.076;2023-01-08T12:05:31;97791.25;;;10.41;100.00
63715;BME280;49858;48.956;9.076;2023-01-08T12:08:04;97793.00;;;10.60;100.00
63715;BME280;49858;48.956;9.076;2023-01-08T12:10:42;97787.94;;;10.66;100.00
63715;BME280;49858;48.956;9.076;2023-01-08T12:13:27;97781.50;;;10.51;100.00
63715;BME280;49858;48.956;9.076;2023-01-08T12:16:06;97766.31;;;10.68;100.00
63715;BME280;49858;48.956;9.076;2023-01-08T12:19:04;97754.69;;;10.85;100.00
63715;BME280;49858;48.956;9.076;2023-01-08T12:21:44;97745.03;;;11.06;100.00
63715;BME280;49858;48.956;9.076;2023-01-08T12:24:21;97753.63;;;11.00;100.00
63715;BME280;49858;48.956;9.076;2023-01-08T12:27:02;97749.06;;;10.71;100.00
63715;BME280;49858;48.956;9.076;2023-01-08T12:29:46;97769.56;;;10.77;100.00
63715;BME280;49858;48.956;9.076;2023-01-08T12:32:25;97753.97;;;10.95;100.00
63715;BME280;49858;48.956;9.076;2023-01-08T12:34:57;97751.78;;;11.19;100.00
63715;BME280;49858;48.956;9.076;2023-01-08T12:37:33;97750.88;;;10.53;100.00
63715;BME280;49858;48.956;9.076;2023-01-08T12:40:13;97745.84;;;10.62;100.00
63715;BME280;49858;48.956;9.076;2023-01-08T12:42:43;97749.22;;;10.89;100.00
63715;BME280;49858;48.956;9.076;2023-01-08T12:45:20;97755.13;;;10.91;100.00
63715;BME280;49858;48.956;9.076;2023-01-08T12:47:53;97757.28;;;10.64;100.00
63715;BME280;49858;48.956;9.076;2023-01-08T12:50:43;97757.50;;;10.92;100.00
63715;BME280;49858;48.956;9.076;2023-01-08T12:53:24;97746.38;;;10.74;100.00
63715;BME280;49858;48.956;9.076;2023-01-08T12:56:00;97753.06;;;10.77;100.00
63715;BME280;49858;48.956;9.076;2023-01-08T12:58:36;97738.25;;;10.92;100.00
63715;BME280;49858;48.956;9.076;2023-01-08T13:01:15;97739.25;;;10.70;100.00
63715;BME280;49858;48.956;9.076;2023-01-08T13:03:48;97731.84;;;10.78;100.00
63715;BME280;49858;48.956;9.076;2023-01-08T13:06:18;97744.06;;;10.84;100.00
63715;BME280;49858;48.956;9.076;2023-01-08T13:08:50;97738.00;;;10.23;100.00
63715;BME280;49858;48.956;9.076;2023-01-08T13:11:27;97725.31;;;10.48;100.00
63715;BME280;49858;48.956;9.076;2023-01-08T13:14:00;97717.94;;;10.60;100.00
63715;BME280;49858;48.956;9.076;2023-01-08T13:16:36;97723.81;;;10.55;100.00